BIBD

Bildudalur Airport

Bildudalur, Iceland
METAR BIBD 171600Z 22005KT 9999 SCT015 OVC025 M02/M06 Q0983
Observed Flight Rules
Jan-17 @ 16:00 UTC (6 hours ago) Marginal Visual Flight Rules
Wind Visibility Clouds
220° at 5 knots 10,000+ meters
  • Scattered at 1,500' AGL
  • Overcast at 2,500' AGL
Temperatures Readings
Current -2°C / 28°F
Dewpoint -6°C / 21°F
Humidity 74%
Altimeter 29.03" Hg
Pressure 983 hPa
Elevation 6
METAR BIBD 171600Z 22005KT 9999 SCT015 OVC025 M02/M06 Q0983
Observed Flight Rules
Jan-17 @ 16:00 UTC
(6 hours ago)
MVFR
Wind Visibility
220° at 5 knots 10,000+ meters
Clouds
  • Scattered at 1,500' AGL
  • Overcast at 2,500' AGL
Temperature Dewpoint
-2°C / 28°F -6°C / 21°F
Humidity Altimeter Pressure
74% 29.03" Hg 983 hPa